Time;durP1;ratioP1;P1;durP2;ratioP2;P2;SDS_P1;SDS_P2;PMS_P1;PMS_P2;Temp;Humidity;BMP_temperature;BMP_pressure;BME280_temperature;BME280_humidity;BME280_pressure;Samples;Min_cycle;Max_cycle;Signal;HPM_P1;HPM_P2
2022/10/04 00:02:26;;;;;;;645.85;492.33;;;14.10;99.90;;;;;;5051503;28;20198;-75
2022/10/04 00:04:58;;;;;;;653.05;487.95;;;14.10;99.90;;;;;;5045744;28;20689;-76
2022/10/04 00:07:29;;;;;;;645.42;498.15;;;14.10;99.90;;;;;;5049140;28;20245;-76
2022/10/04 00:10:00;;;;;;;609.53;486.33;;;14.10;99.90;;;;;;5051233;28;20219;-77
2022/10/04 00:12:30;;;;;;;581.85;484.58;;;14.10;99.90;;;;;;5049915;28;20680;-76
2022/10/04 00:14:59;;;;;;;572.60;481.67;;;14.10;99.90;;;;;;5047059;28;20206;-76
2022/10/04 00:17:30;;;;;;;561.88;480.45;;;14.00;99.90;;;;;;5051125;28;20223;-76
2022/10/04 00:19:58;;;;;;;555.00;484.13;;;14.00;99.90;;;;;;5051452;28;20194;-76
2022/10/04 00:22:27;;;;;;;555.80;479.60;;;14.00;99.90;;;;;;5050577;28;20199;-75
2022/10/04 00:25:21;;;;;;;561.35;479.25;;;14.00;99.90;;;;;;5041777;28;20198;-77
2022/10/04 00:28:30;;;;;;;560.58;475.00;;;14.00;99.90;;;;;;5043015;28;20264;-75
2022/10/04 00:31:25;;;;;;;562.28;469.15;;;14.00;99.90;;;;;;4999622;28;20243;-79
2022/10/04 00:33:54;;;;;;;578.67;466.27;;;14.00;99.90;;;;;;5049478;28;20286;-76
2022/10/04 00:36:54;;;;;;;610.83;480.70;;;14.00;99.90;;;;;;5044785;28;20210;-77
2022/10/04 00:39:26;;;;;;;576.38;464.95;;;14.00;99.90;;;;;;5047338;28;20214;-75
2022/10/04 00:42:02;;;;;;;576.00;460.45;;;13.90;99.90;;;;;;5047127;28;20210;-75
2022/10/04 00:44:37;;;;;;;587.22;467.27;;;13.90;99.90;;;;;;5051950;28;21002;-76
2022/10/04 00:47:18;;;;;;;571.33;473.20;;;13.90;99.90;;;;;;5047574;28;20205;-77
2022/10/04 00:49:49;;;;;;;558.25;461.48;;;13.90;99.90;;;;;;5045522;28;20633;-75
2022/10/04 00:52:20;;;;;;;568.47;477.20;;;13.90;99.90;;;;;;5044433;28;20204;-79
2022/10/04 00:54:51;;;;;;;563.40;474.80;;;13.90;99.90;;;;;;5047302;28;20207;-76
2022/10/04 00:57:24;;;;;;;556.92;479.02;;;13.90;99.90;;;;;;5045656;28;20512;-76
2022/10/04 00:59:54;;;;;;;556.97;469.48;;;13.90;99.90;;;;;;5039547;28;20207;-77
2022/10/04 01:02:25;;;;;;;558.83;478.58;;;13.90;99.90;;;;;;5047997;28;20210;-76
2022/10/04 01:04:55;;;;;;;565.90;478.50;;;13.90;99.90;;;;;;5046406;28;20694;-75
2022/10/04 01:07:27;;;;;;;551.58;473.05;;;13.90;99.90;;;;;;5044897;28;20203;-75
2022/10/04 01:09:59;;;;;;;554.92;470.92;;;13.90;99.90;;;;;;5039169;28;20211;-76
2022/10/04 01:12:41;;;;;;;541.30;457.90;;;13.90;99.90;;;;;;5049650;28;20195;-76
2022/10/04 01:15:15;;;;;;;552.88;476.60;;;13.90;99.90;;;;;;5044267;28;20199;-76
2022/10/04 01:18:02;;;;;;;547.22;471.60;;;13.80;99.90;;;;;;5044797;28;20687;-76
2022/10/04 01:20:33;;;;;;;544.97;461.02;;;13.80;99.90;;;;;;5049846;28;20197;-76
2022/10/04 01:23:03;;;;;;;529.45;469.50;;;13.80;99.90;;;;;;5043592;28;20230;-77
2022/10/04 01:25:44;;;;;;;532.45;447.70;;;13.80;99.90;;;;;;5039957;28;20202;-76
2022/10/04 01:28:11;;;;;;;531.72;453.25;;;13.80;99.90;;;;;;5046451;28;20229;-75
2022/10/04 01:30:38;;;;;;;531.03;460.40;;;13.80;99.90;;;;;;5041484;28;20264;-76
2022/10/04 01:33:05;;;;;;;548.80;460.02;;;13.80;99.90;;;;;;5039791;28;22108;-77
2022/10/04 01:35:34;;;;;;;559.00;470.02;;;13.80;99.90;;;;;;5043082;28;20248;-75
2022/10/04 01:38:05;;;;;;;555.25;458.42;;;13.80;99.90;;;;;;5040222;28;20203;-75
2022/10/04 01:40:32;;;;;;;572.10;465.90;;;13.80;99.90;;;;;;5039169;28;20203;-77
2022/10/04 01:43:04;;;;;;;569.60;456.33;;;13.80;99.90;;;;;;5043532;28;20195;-77
2022/10/04 01:45:37;;;;;;;562.42;464.33;;;13.80;99.90;;;;;;5038617;28;20195;-76
2022/10/04 01:48:07;;;;;;;577.97;467.75;;;13.80;99.90;;;;;;5039576;28;20191;-76
2022/10/04 01:50:37;;;;;;;586.92;472.58;;;13.80;99.90;;;;;;5039469;28;20219;-76
2022/10/04 01:53:14;;;;;;;597.85;469.02;;;13.70;99.90;;;;;;5038674;28;20618;-75
2022/10/04 01:55:44;;;;;;;565.92;467.70;;;13.70;99.90;;;;;;5037698;28;20255;-75
2022/10/04 01:58:14;;;;;;;579.42;461.33;;;13.70;99.90;;;;;;5041532;28;20864;-81
2022/10/04 02:00:50;;;;;;;594.50;469.92;;;13.70;99.90;;;;;;5037876;28;20206;-77
2022/10/04 02:03:20;;;;;;;557.75;463.08;;;13.70;99.90;;;;;;5043671;28;20201;-75
2022/10/04 02:05:53;;;;;;;575.35;459.77;;;13.70;99.90;;;;;;5044048;28;20662;-77
2022/10/04 02:08:27;;;;;;;587.47;466.23;;;13.70;99.90;;;;;;5042013;28;20249;-79
2022/10/04 02:10:55;;;;;;;581.65;464.98;;;13.70;99.90;;;;;;5040704;28;20221;-77
2022/10/04 02:13:26;;;;;;;542.88;459.67;;;13.70;99.90;;;;;;5042163;28;20701;-78
2022/10/04 02:15:53;;;;;;;534.78;457.52;;;13.70;99.90;;;;;;5037640;28;20727;-78
2022/10/04 02:18:22;;;;;;;532.50;455.10;;;13.70;99.90;;;;;;5044619;28;20957;-78
2022/10/04 02:20:50;;;;;;;526.10;453.52;;;13.70;99.90;;;;;;5040170;28;20191;-77
2022/10/04 02:23:20;;;;;;;538.00;477.73;;;13.70;99.90;;;;;;5039842;28;20289;-77
2022/10/04 02:25:48;;;;;;;524.33;450.00;;;13.70;99.90;;;;;;5034831;28;20258;-79
2022/10/04 02:28:17;;;;;;;524.97;463.98;;;13.70;99.90;;;;;;5039048;28;20599;-78
2022/10/04 02:32:56;;;;;;;515.83;456.92;;;13.70;99.90;;;;;;5039295;28;20222;-78
2022/10/04 02:33:37;;;;;;;510.92;452.75;;;13.70;99.90;;;;;;5037064;28;20200;-78
2022/10/04 02:36:08;;;;;;;504.80;448.02;;;13.70;99.90;;;;;;5038506;28;20209;-77
2022/10/04 02:38:40;;;;;;;510.13;454.75;;;13.70;99.90;;;;;;5047276;28;20226;-78
2022/10/04 02:41:20;;;;;;;497.90;441.52;;;13.70;99.90;;;;;;5038649;28;20680;-77
2022/10/04 02:43:50;;;;;;;512.42;456.85;;;13.60;99.90;;;;;;5039203;28;20197;-77
2022/10/04 02:46:23;;;;;;;497.88;443.58;;;13.60;99.90;;;;;;5041431;28;20194;-78
2022/10/04 02:48:55;;;;;;;513.95;456.35;;;13.60;99.90;;;;;;5044293;28;20213;-77
2022/10/04 02:51:26;;;;;;;518.15;449.05;;;13.60;99.90;;;;;;5035148;28;20591;-79
2022/10/04 02:54:01;;;;;;;514.80;444.50;;;13.60;99.90;;;;;;5038566;28;20551;-79
2022/10/04 02:56:29;;;;;;;516.40;450.20;;;13.60;99.90;;;;;;5038996;28;20202;-78
2022/10/04 02:59:01;;;;;;;514.67;452.67;;;13.60;99.90;;;;;;5040836;28;20660;-78
2022/10/04 03:01:36;;;;;;;515.85;450.02;;;13.60;99.90;;;;;;5041411;28;20683;-77
2022/10/04 03:04:03;;;;;;;523.45;436.38;;;13.60;99.90;;;;;;5039407;28;20212;-78
2022/10/04 03:06:32;;;;;;;532.40;457.42;;;13.60;99.90;;;;;;5039746;28;20303;-78
2022/10/04 03:09:02;;;;;;;512.67;438.33;;;13.60;99.90;;;;;;5038939;28;20718;-79
2022/10/04 03:11:33;;;;;;;516.95;460.73;;;13.60;99.90;;;;;;5038760;28;20249;-78
2022/10/04 03:14:03;;;;;;;503.48;447.10;;;13.60;99.90;;;;;;5044683;28;20692;-78
2022/10/04 03:16:35;;;;;;;509.92;452.50;;;13.60;99.90;;;;;;5041615;28;20286;-78
2022/10/04 03:19:02;;;;;;;505.58;449.05;;;13.60;99.90;;;;;;5042901;28;20195;-78
2022/10/04 03:21:31;;;;;;;510.13;451.83;;;13.60;99.90;;;;;;5049130;28;20191;-77
2022/10/04 03:23:59;;;;;;;514.60;456.40;;;13.60;99.90;;;;;;5050986;28;20561;-77
2022/10/04 03:26:32;;;;;;;524.63;464.08;;;13.60;99.90;;;;;;5037612;28;20975;-77
2022/10/04 03:28:59;;;;;;;524.40;458.23;;;13.50;99.90;;;;;;5037773;28;20205;-77
2022/10/04 03:31:28;;;;;;;522.03;458.40;;;13.50;99.90;;;;;;5037805;28;20222;-79
2022/10/04 03:33:55;;;;;;;530.70;471.73;;;13.50;99.90;;;;;;5036554;28;20205;-79
2022/10/04 03:36:24;;;;;;;527.80;457.65;;;13.50;99.90;;;;;;5038726;28;20555;-77
2022/10/04 03:38:54;;;;;;;524.28;456.13;;;13.50;99.90;;;;;;5039802;28;20204;-78
2022/10/04 03:41:22;;;;;;;533.38;473.75;;;13.50;99.90;;;;;;5037770;28;20210;-77
2022/10/04 03:43:52;;;;;;;519.55;454.58;;;13.50;99.90;;;;;;5044069;28;20200;-78
2022/10/04 03:46:21;;;;;;;514.78;458.00;;;13.50;99.90;;;;;;5043559;28;20198;-80
2022/10/04 03:48:51;;;;;;;510.45;444.05;;;13.50;99.90;;;;;;5034750;28;20325;-77
2022/10/04 03:51:21;;;;;;;527.03;449.52;;;13.50;99.90;;;;;;5039352;28;20218;-79
2022/10/04 03:53:51;;;;;;;539.05;457.23;;;13.50;99.90;;;;;;5038043;28;20197;-77
2022/10/04 03:56:21;;;;;;;556.38;460.33;;;13.50;99.90;;;;;;5038495;28;20209;-77
2022/10/04 03:58:51;;;;;;;559.28;453.25;;;13.50;99.90;;;;;;5041084;28;20202;-77
2022/10/04 04:01:35;;;;;;;570.60;465.02;;;13.50;99.90;;;;;;5039219;28;20662;-79
2022/10/04 04:04:11;;;;;;;600.72;456.67;;;13.50;99.90;;;;;;5035500;28;20206;-79
2022/10/04 04:06:45;;;;;;;627.00;450.40;;;13.50;99.90;;;;;;5045050;28;20198;-78
2022/10/04 04:09:19;;;;;;;574.88;448.73;;;13.40;99.90;;;;;;5039976;28;20726;-78
2022/10/04 04:11:49;;;;;;;558.28;441.90;;;13.40;99.90;;;;;;5038791;28;20221;-79
2022/10/04 04:14:23;;;;;;;551.17;441.73;;;13.40;99.90;;;;;;5039549;28;20199;-79
2022/10/04 04:16:51;;;;;;;559.65;443.38;;;13.40;99.90;;;;;;5041232;28;20228;-78
2022/10/04 04:19:23;;;;;;;564.75;447.60;;;13.40;99.90;;;;;;5043017;28;20268;-77
2022/10/04 04:21:53;;;;;;;533.17;440.25;;;13.40;99.90;;;;;;5054193;28;20961;-77
2022/10/04 04:24:25;;;;;;;516.67;444.48;;;13.40;99.90;;;;;;5039109;28;20349;-78
2022/10/04 04:26:56;;;;;;;509.17;435.48;;;13.40;99.90;;;;;;5042272;28;20228;-78
2022/10/04 04:29:30;;;;;;;504.52;434.40;;;13.30;99.90;;;;;;5047476;28;20195;-79
2022/10/04 04:32:01;;;;;;;501.33;433.67;;;13.30;99.90;;;;;;5043071;28;20227;-77
2022/10/04 04:34:30;;;;;;;516.40;458.52;;;13.30;99.90;;;;;;5044435;28;20200;-78
2022/10/04 04:36:59;;;;;;;508.25;436.85;;;13.30;99.90;;;;;;5043672;28;20209;-78
2022/10/04 04:39:39;;;;;;;509.30;425.83;;;13.30;99.90;;;;;;5042866;28;20222;-79
2022/10/04 04:42:14;;;;;;;520.33;433.55;;;13.30;99.90;;;;;;5039860;28;20203;-77
2022/10/04 04:44:49;;;;;;;531.83;438.90;;;13.30;99.90;;;;;;5041450;28;20736;-78
2022/10/04 04:47:27;;;;;;;552.60;458.77;;;13.30;99.90;;;;;;5043457;28;20640;-77
2022/10/04 04:49:56;;;;;;;540.03;432.73;;;13.30;99.90;;;;;;5042346;28;20202;-79
2022/10/04 04:52:27;;;;;;;542.22;451.25;;;13.30;99.90;;;;;;5041999;28;20697;-78
2022/10/04 04:54:55;;;;;;;533.95;436.90;;;13.20;99.90;;;;;;5039123;28;20214;-78
2022/10/04 04:57:22;;;;;;;534.28;432.77;;;13.20;99.90;;;;;;5039938;28;20201;-78
2022/10/04 04:59:56;;;;;;;530.22;440.02;;;13.20;99.90;;;;;;5040936;28;20206;-79
2022/10/04 05:02:31;;;;;;;525.90;426.73;;;13.20;99.90;;;;;;5041147;28;20219;-79
2022/10/04 05:05:19;;;;;;;517.92;437.60;;;13.20;99.90;;;;;;5042185;28;20652;-78
2022/10/04 05:07:46;;;;;;;499.83;422.77;;;13.20;99.90;;;;;;5043629;28;20326;-78
2022/10/04 05:10:30;;;;;;;493.00;426.63;;;13.20;99.90;;;;;;5039539;28;20653;-77
2022/10/04 05:12:59;;;;;;;500.25;429.92;;;13.20;99.90;;;;;;5042260;28;20603;-78
2022/10/04 05:15:32;;;;;;;501.38;439.20;;;13.20;99.90;;;;;;5044087;28;20198;-78
2022/10/04 05:17:59;;;;;;;509.25;429.25;;;13.20;99.90;;;;;;5045987;28;20210;-78
2022/10/04 05:20:27;;;;;;;515.70;439.08;;;13.20;99.90;;;;;;5037881;28;20199;-78
2022/10/04 05:22:54;;;;;;;512.13;426.30;;;13.20;99.90;;;;;;5042331;28;20552;-77
2022/10/04 05:25:28;;;;;;;532.22;445.52;;;13.20;99.90;;;;;;5051078;28;20193;-78
2022/10/04 05:27:55;;;;;;;549.78;457.70;;;13.20;99.90;;;;;;5041619;28;20292;-78
2022/10/04 05:30:47;;;;;;;540.17;444.58;;;13.20;99.90;;;;;;5041236;28;20223;-78
2022/10/04 05:33:21;;;;;;;519.65;427.15;;;13.20;99.90;;;;;;5039471;28;20712;-77
2022/10/04 05:36:01;;;;;;;522.28;431.33;;;13.10;99.90;;;;;;5040048;28;20234;-78
2022/10/04 05:38:36;;;;;;;511.88;437.98;;;13.10;99.90;;;;;;5042489;28;20206;-78
2022/10/04 05:41:09;;;;;;;526.05;442.20;;;13.10;99.90;;;;;;5038989;28;20212;-78
2022/10/04 05:43:37;;;;;;;525.22;441.33;;;13.10;99.90;;;;;;5039804;28;20210;-77
2022/10/04 05:46:25;;;;;;;516.40;440.88;;;13.10;99.90;;;;;;5045565;28;20205;-78
2022/10/04 05:48:54;;;;;;;507.75;421.80;;;13.10;99.90;;;;;;5043533;28;20210;-78
2022/10/04 05:51:23;;;;;;;519.13;436.90;;;13.10;99.90;;;;;;5046004;28;20202;-78
2022/10/04 05:53:50;;;;;;;524.47;428.88;;;13.10;99.90;;;;;;5039189;28;20205;-78
2022/10/04 05:56:41;;;;;;;515.50;433.70;;;13.10;99.90;;;;;;5037689;28;20207;-79
2022/10/04 05:59:21;;;;;;;491.92;418.65;;;13.10;99.90;;;;;;5031508;28;20222;-78
2022/10/04 06:01:56;;;;;;;496.45;424.80;;;13.10;99.90;;;;;;5041101;28;20228;-78
2022/10/04 06:04:37;;;;;;;487.52;419.85;;;13.10;99.90;;;;;;5040752;28;20220;-78
2022/10/04 06:07:15;;;;;;;496.45;438.27;;;13.10;99.90;;;;;;5051055;28;20244;-78
2022/10/04 06:09:59;;;;;;;493.23;427.17;;;13.10;99.90;;;;;;5039612;28;20652;-78
2022/10/04 06:12:41;;;;;;;491.25;428.17;;;13.10;99.90;;;;;;5039048;28;20567;-80
2022/10/04 06:15:22;;;;;;;492.30;415.25;;;13.10;99.90;;;;;;5040040;28;20209;-80
2022/10/04 06:18:01;;;;;;;497.13;422.02;;;13.10;99.90;;;;;;5036969;28;20993;-78
2022/10/04 06:20:56;;;;;;;499.95;417.48;;;13.10;99.90;;;;;;5038611;28;20938;-78
2022/10/04 06:23:27;;;;;;;509.25;425.15;;;13.10;99.90;;;;;;5038201;28;20732;-77
2022/10/04 06:25:56;;;;;;;527.90;428.23;;;13.10;99.90;;;;;;5038959;28;20208;-78
2022/10/04 06:28:29;;;;;;;537.63;434.70;;;13.10;99.90;;;;;;5042604;28;20205;-79
2022/10/04 06:31:23;;;;;;;550.80;442.20;;;13.10;99.90;;;;;;5039734;28;20202;-79
2022/10/04 06:34:30;;;;;;;538.05;423.65;;;13.10;99.90;;;;;;5039507;28;20430;-78
2022/10/04 06:37:10;;;;;;;543.03;415.65;;;13.20;99.90;;;;;;4979437;28;20777;-77
2022/10/04 06:40:01;;;;;;;561.80;431.05;;;13.20;99.90;;;;;;4977444;28;20205;-78
2022/10/04 06:42:47;;;;;;;561.78;437.17;;;13.20;99.90;;;;;;5023055;28;20673;-78
2022/10/04 06:45:31;;;;;;;553.78;425.60;;;13.20;99.90;;;;;;5039677;28;20199;-80
2022/10/04 06:48:15;;;;;;;543.00;414.60;;;13.20;99.90;;;;;;5039861;28;20639;-77
2022/10/04 06:50:50;;;;;;;542.88;432.40;;;13.20;99.90;;;;;;5039436;28;20205;-78
2022/10/04 06:53:28;;;;;;;539.08;425.70;;;13.20;99.90;;;;;;5040296;28;20283;-79
2022/10/04 06:56:21;;;;;;;531.85;420.42;;;13.20;99.90;;;;;;5036875;28;20204;-78
2022/10/04 06:59:09;;;;;;;526.10;426.52;;;13.30;99.90;;;;;;5040435;28;20201;-78
2022/10/04 07:01:46;;;;;;;549.33;430.08;;;13.30;99.90;;;;;;5039171;28;20201;-78
2022/10/04 07:04:24;;;;;;;516.58;436.70;;;13.40;99.90;;;;;;5037208;28;20191;-79
2022/10/04 07:07:22;;;;;;;509.27;442.75;;;13.40;99.90;;;;;;5041985;28;20215;-78
2022/10/04 07:09:52;;;;;;;505.00;431.77;;;13.50;99.90;;;;;;5041339;28;20252;-79
2022/10/04 07:12:19;;;;;;;500.75;438.52;;;13.60;99.90;;;;;;5043348;28;20679;-77
2022/10/04 07:14:50;;;;;;;514.65;458.60;;;13.60;99.90;;;;;;5044509;28;20198;-78
2022/10/04 07:17:22;;;;;;;520.38;464.05;;;13.70;99.90;;;;;;5039478;28;20217;-78
2022/10/04 07:19:52;;;;;;;511.60;454.67;;;13.80;99.90;;;;;;5038299;28;21631;-79
2022/10/04 07:22:27;;;;;;;516.45;458.77;;;13.90;99.90;;;;;;5043715;28;20191;-79
2022/10/04 07:25:03;;;;;;;513.38;457.45;;;13.90;99.90;;;;;;5047716;28;20201;-78
2022/10/04 07:27:34;;;;;;;534.85;477.80;;;14.00;99.90;;;;;;5039657;28;20190;-79
2022/10/04 07:30:04;;;;;;;531.50;475.30;;;14.10;99.90;;;;;;5037498;28;20203;-78
2022/10/04 07:32:35;;;;;;;553.83;495.92;;;14.20;99.90;;;;;;5039509;28;20233;-81
2022/10/04 07:35:05;;;;;;;545.47;488.17;;;14.30;99.90;;;;;;5041592;28;20579;-79
2022/10/04 07:37:45;;;;;;;554.65;497.13;;;14.40;99.90;;;;;;5038279;28;20201;-79
2022/10/04 07:40:22;;;;;;;560.45;502.95;;;14.60;99.90;;;;;;5034889;28;20268;-79
2022/10/04 07:42:53;;;;;;;560.95;503.13;;;14.70;99.90;;;;;;5040575;28;20707;-78
2022/10/04 07:45:25;;;;;;;550.97;493.80;;;14.80;99.90;;;;;;5040577;28;20235;-79
2022/10/04 07:48:01;;;;;;;562.33;507.95;;;14.80;99.90;;;;;;5041516;28;20203;-79
2022/10/04 07:50:35;;;;;;;529.55;489.90;;;14.90;99.90;;;;;;5041270;28;20203;-78
2022/10/04 07:53:07;;;;;;;605.50;546.63;;;14.80;99.90;;;;;;5043801;28;20218;-79
2022/10/04 07:55:45;;;;;;;576.45;517.97;;;14.80;99.90;;;;;;5043451;28;20207;-79
2022/10/04 07:58:24;;;;;;;558.97;500.10;;;14.80;99.90;;;;;;5041500;28;20199;-78
2022/10/04 08:00:56;;;;;;;566.72;507.42;;;14.70;99.90;;;;;;5044203;28;20550;-79
2022/10/04 08:03:38;;;;;;;573.92;508.42;;;14.70;99.90;;;;;;5042888;28;20214;-79
2022/10/04 08:06:12;;;;;;;564.95;497.70;;;14.60;99.90;;;;;;5041384;28;20593;-78
2022/10/04 08:09:20;;;;;;;555.28;490.70;;;14.60;99.90;;;;;;5044098;28;20206;-79
2022/10/04 08:11:58;;;;;;;542.45;481.88;;;14.50;99.90;;;;;;5012901;28;20206;-79
2022/10/04 08:14:34;;;;;;;552.80;488.40;;;14.50;99.90;;;;;;5044167;28;20210;-78
2022/10/04 08:17:13;;;;;;;557.88;481.80;;;14.40;99.90;;;;;;5039515;28;20272;-80
2022/10/04 08:19:48;;;;;;;556.90;483.70;;;14.40;99.90;;;;;;5043923;28;20566;-79
2022/10/04 08:22:25;;;;;;;552.67;476.42;;;14.40;99.90;;;;;;5044464;28;20522;-79
2022/10/04 08:25:03;;;;;;;551.72;490.13;;;14.40;99.90;;;;;;5043075;28;20245;-79
2022/10/04 08:27:39;;;;;;;570.65;481.17;;;14.40;99.90;;;;;;5048309;28;20203;-79
2022/10/04 08:30:11;;;;;;;556.17;490.65;;;14.40;99.90;;;;;;5041801;28;20203;-79
2022/10/04 08:33:05;;;;;;;557.15;488.67;;;14.40;99.90;;;;;;5043720;28;20774;-79
2022/10/04 08:35:38;;;;;;;557.13;477.05;;;14.30;99.90;;;;;;5043537;28;20208;-79
2022/10/04 08:38:35;;;;;;;564.53;481.05;;;14.30;99.90;;;;;;5041945;28;20290;-79
2022/10/04 08:41:57;;;;;;;559.35;480.70;;;14.40;99.90;;;;;;5043120;28;20202;-79
2022/10/04 08:45:03;;;;;;;561.28;480.23;;;14.40;99.90;;;;;;5040422;28;20195;-79
2022/10/04 08:48:04;;;;;;;557.30;483.50;;;14.50;99.90;;;;;;5041335;28;20658;-80
2022/10/04 08:51:04;;;;;;;562.40;500.60;;;14.70;99.90;;;;;;5045169;28;20234;-79
2022/10/04 08:54:14;;;;;;;581.65;519.67;;;14.80;99.90;;;;;;5039206;28;20207;-77
2022/10/04 08:57:02;;;;;;;570.88;510.20;;;15.00;99.90;;;;;;5041608;28;20195;-78
2022/10/04 08:59:59;;;;;;;596.83;533.42;;;15.10;99.90;;;;;;5043457;28;20206;-78
2022/10/04 09:03:00;;;;;;;604.60;540.53;;;15.30;99.90;;;;;;5035344;28;20542;-78
2022/10/04 09:05:56;;;;;;;619.95;555.65;;;15.40;99.90;;;;;;5040384;28;20204;-78
2022/10/04 09:09:01;;;;;;;613.92;549.90;;;15.50;99.90;;;;;;5043064;28;20206;-77
2022/10/04 09:11:45;;;;;;;628.80;565.10;;;15.50;99.90;;;;;;5042080;28;20606;-78
2022/10/04 09:14:57;;;;;;;626.72;562.95;;;15.60;99.90;;;;;;5042949;28;20679;-77
2022/10/04 09:17:37;;;;;;;630.50;566.13;;;15.60;99.90;;;;;;5037623;28;20215;-77
2022/10/04 09:20:21;;;;;;;655.00;590.60;;;15.70;99.90;;;;;;5040870;28;20202;-80
2022/10/04 09:22:56;;;;;;;620.92;557.53;;;15.70;99.90;;;;;;5045356;28;20199;-78
2022/10/04 09:25:52;;;;;;;651.22;586.47;;;15.70;99.90;;;;;;5043492;28;20202;-79
2022/10/04 09:28:51;;;;;;;627.63;564.83;;;15.70;99.90;;;;;;5036997;28;20198;-79
2022/10/04 09:31:51;;;;;;;646.97;583.20;;;15.70;99.90;;;;;;5035441;28;20203;-79
2022/10/04 09:34:32;;;;;;;626.45;563.63;;;15.70;99.90;;;;;;5040911;28;20230;-78
2022/10/04 09:37:25;;;;;;;628.72;566.15;;;15.70;99.90;;;;;;5042514;28;20210;-78
2022/10/04 09:40:28;;;;;;;637.30;573.83;;;15.70;99.90;;;;;;5038720;28;20199;-78
2022/10/04 09:43:20;;;;;;;638.53;574.63;;;15.70;99.90;;;;;;5040537;28;20674;-78
2022/10/04 09:46:14;;;;;;;641.08;576.60;;;15.80;99.90;;;;;;5046897;28;20298;-79
2022/10/04 09:48:56;;;;;;;642.97;577.67;;;15.80;99.90;;;;;;5039756;28;20605;-79
2022/10/04 09:52:00;;;;;;;630.42;564.85;;;15.80;99.90;;;;;;5039679;28;20202;-79
2022/10/04 09:54:53;;;;;;;646.67;578.30;;;15.80;99.90;;;;;;5039591;28;20246;-78
2022/10/04 09:57:31;;;;;;;650.97;581.88;;;15.70;99.90;;;;;;5042908;28;20206;-77
2022/10/04 10:00:22;;;;;;;660.45;590.22;;;15.80;99.90;;;;;;5049405;28;20628;-79
2022/10/04 10:03:33;;;;;;;655.75;585.30;;;15.80;99.90;;;;;;5051496;28;20667;-78
2022/10/04 10:06:28;;;;;;;655.50;585.05;;;15.80;99.90;;;;;;5049773;28;20210;-78
2022/10/04 10:09:17;;;;;;;659.50;588.08;;;15.70;99.90;;;;;;5048000;28;20225;-77
2022/10/04 10:15:03;;;;;;;660.65;587.20;;;15.70;99.90;;;;;;5046121;28;20271;-78
2022/10/04 10:17:39;;;;;;;637.90;569.10;;;15.80;99.90;;;;;;5040676;28;20222;-80
2022/10/04 10:20:46;;;;;;;665.58;589.78;;;15.80;99.90;;;;;;5042042;28;20731;-78
2022/10/04 10:23:37;;;;;;;704.33;589.17;;;15.70;99.90;;;;;;5040553;28;20430;-78
2022/10/04 10:26:23;;;;;;;696.95;545.55;;;15.70;99.90;;;;;;5042007;28;20693;-78
2022/10/04 10:29:18;;;;;;;708.28;550.13;;;15.70;99.90;;;;;;5041548;28;20561;-78
2022/10/04 10:31:59;;;;;;;712.88;554.50;;;15.70;99.90;;;;;;5017950;28;20210;-78
2022/10/04 10:34:47;;;;;;;706.55;562.47;;;15.70;99.90;;;;;;5041128;28;20218;-81
2022/10/04 10:37:25;;;;;;;688.70;569.42;;;15.70;99.90;;;;;;5040477;28;20290;-79
2022/10/04 10:40:23;;;;;;;640.72;571.10;;;15.70;99.90;;;;;;5041361;28;20206;-80
2022/10/04 10:43:14;;;;;;;627.53;559.95;;;15.70;99.90;;;;;;5043835;28;20633;-79
2022/10/04 10:46:04;;;;;;;627.65;559.63;;;15.70;99.90;;;;;;5040905;28;20310;-78
2022/10/04 10:49:03;;;;;;;608.90;543.08;;;15.70;99.90;;;;;;5041695;28;20204;-79
2022/10/04 10:52:05;;;;;;;625.10;560.10;;;15.70;99.90;;;;;;5041349;28;20249;-79
2022/10/04 10:55:07;;;;;;;611.15;546.03;;;15.70;99.90;;;;;;5045232;28;20664;-79
2022/10/04 10:58:07;;;;;;;631.30;566.13;;;15.70;99.90;;;;;;5030451;28;20658;-78
2022/10/04 11:00:46;;;;;;;623.97;559.08;;;15.70;99.90;;;;;;5040874;28;20680;-80
2022/10/04 11:03:45;;;;;;;619.95;555.72;;;15.70;99.90;;;;;;5039708;28;20224;-79
2022/10/04 11:06:24;;;;;;;612.33;548.00;;;15.70;99.90;;;;;;5041205;28;20496;-78
2022/10/04 11:09:26;;;;;;;612.47;547.78;;;15.70;99.90;;;;;;5038465;28;20667;-79
2022/10/04 11:12:22;;;;;;;624.65;558.78;;;15.70;99.90;;;;;;5048544;28;20198;-78
2022/10/04 11:15:20;;;;;;;616.95;550.45;;;15.70;99.90;;;;;;5041875;28;20214;-78
2022/10/04 11:18:13;;;;;;;618.42;551.45;;;15.70;99.90;;;;;;5013678;28;20272;-79
2022/10/04 11:20:58;;;;;;;622.55;554.50;;;15.70;99.90;;;;;;5048016;28;20238;-77
2022/10/04 11:23:57;;;;;;;633.92;566.08;;;15.70;99.90;;;;;;5049803;28;20688;-78
2022/10/04 11:26:59;;;;;;;618.00;550.53;;;15.70;99.90;;;;;;5052665;28;20650;-79
2022/10/04 11:29:59;;;;;;;624.72;556.97;;;15.70;99.90;;;;;;5053113;28;20205;-78
2022/10/04 11:33:03;;;;;;;616.97;549.42;;;15.80;99.90;;;;;;5035050;28;20199;-78
2022/10/04 11:36:12;;;;;;;603.88;537.08;;;15.70;99.90;;;;;;5048785;28;20214;-78
2022/10/04 11:38:52;;;;;;;617.17;549.92;;;15.80;99.90;;;;;;5034074;28;20203;-78
2022/10/04 11:41:25;;;;;;;616.20;550.00;;;15.70;99.90;;;;;;5048329;28;20194;-80
2022/10/04 11:44:34;;;;;;;618.08;553.10;;;15.70;99.90;;;;;;5034333;28;20196;-78
2022/10/04 11:47:08;;;;;;;615.30;550.70;;;15.80;99.90;;;;;;5051366;28;20200;-78
2022/10/04 11:49:57;;;;;;;608.28;541.55;;;15.80;99.90;;;;;;5045144;28;20198;-78
2022/10/04 11:53:02;;;;;;;618.00;550.35;;;15.80;99.90;;;;;;5052450;28;20235;-78
2022/10/04 11:56:03;;;;;;;615.35;546.13;;;15.70;99.90;;;;;;5050095;28;20206;-77
2022/10/04 11:58:45;;;;;;;626.97;554.08;;;15.80;99.90;;;;;;5016936;28;20273;-77
2022/10/04 12:01:37;;;;;;;622.33;553.53;;;15.70;99.90;;;;;;5054025;28;20210;-78
2022/10/04 12:04:43;;;;;;;624.35;557.28;;;15.70;99.90;;;;;;5049182;28;20226;-78
2022/10/04 12:07:30;;;;;;;621.30;554.53;;;15.80;99.90;;;;;;5044680;28;20678;-78
2022/10/04 12:10:15;;;;;;;613.05;545.65;;;15.80;99.90;;;;;;5046856;28;20725;-78
2022/10/04 12:13:16;;;;;;;633.80;565.63;;;15.70;99.90;;;;;;5044596;28;20202;-78
2022/10/04 12:16:15;;;;;;;621.10;555.92;;;15.70;99.90;;;;;;5055774;28;20202;-79
2022/10/04 12:19:15;;;;;;;615.83;550.13;;;15.80;99.90;;;;;;5036322;28;20219;-79
2022/10/04 12:21:56;;;;;;;602.17;537.05;;;15.80;99.90;;;;;;5032759;28;20238;-79
2022/10/04 12:25:08;;;;;;;613.45;548.05;;;15.80;99.90;;;;;;5049841;28;20561;-78
2022/10/04 12:28:11;;;;;;;613.65;548.53;;;15.80;99.90;;;;;;5052585;28;20561;-78
2022/10/04 12:31:07;;;;;;;607.22;542.85;;;15.70;99.90;;;;;;5043432;28;20207;-79
2022/10/04 12:33:38;;;;;;;613.00;549.00;;;15.70;99.90;;;;;;5047213;28;20706;-77
2022/10/04 12:36:22;;;;;;;587.97;524.75;;;15.70;99.90;;;;;;5047376;28;20584;-78
2022/10/04 12:39:16;;;;;;;618.10;553.83;;;15.70;99.90;;;;;;5052332;28;20226;-76
2022/10/04 12:41:57;;;;;;;614.97;550.67;;;15.80;99.90;;;;;;5033083;28;20196;-79
2022/10/04 12:44:41;;;;;;;623.58;559.90;;;15.80;99.90;;;;;;5050102;28;20191;-78
2022/10/04 12:47:40;;;;;;;623.08;559.70;;;15.80;99.90;;;;;;5051775;28;20202;-79
2022/10/04 12:50:21;;;;;;;615.00;551.55;;;15.80;99.90;;;;;;5050942;28;20195;-76
2022/10/04 12:52:54;;;;;;;600.75;537.92;;;15.80;99.90;;;;;;5039979;28;20336;-78
2022/10/04 12:55:51;;;;;;;632.65;568.67;;;15.70;99.90;;;;;;5045579;28;20226;-76
2022/10/04 12:58:26;;;;;;;618.22;554.53;;;15.80;99.90;;;;;;5051798;28;20199;-77
2022/10/04 13:01:01;;;;;;;616.30;553.20;;;15.80;99.90;;;;;;5052226;28;20664;-76
2022/10/04 13:03:38;;;;;;;634.33;570.85;;;15.80;99.90;;;;;;5049775;28;20204;-77
2022/10/04 13:06:14;;;;;;;617.15;554.58;;;15.80;99.90;;;;;;5052905;28;20206;-77
2022/10/04 13:09:01;;;;;;;622.85;559.55;;;15.80;99.90;;;;;;5051698;28;20211;-77
2022/10/04 13:11:56;;;;;;;621.83;558.72;;;15.80;99.90;;;;;;5050193;28;20199;-78
2022/10/04 13:14:55;;;;;;;613.58;550.47;;;15.80;99.90;;;;;;5051045;28;20222;-76
2022/10/04 13:17:33;;;;;;;624.08;560.30;;;15.80;99.90;;;;;;5043797;28;20701;-77